ADDS METAR Data

Data at: 0746 UTC 24 Oct 2017

METAR for:KMVY (Marthas Vineyard Arp, MA, US)
Text:KMVY 240653Z AUTO 15011G19KT 10SM BKN070 18/17 A3010 RMK AO2 SLP192 T01830167
Temperature: 18.3°C ( 65°F)
Dewpoint: 16.7°C ( 62°F) [RH = 90%]
Pressure (altimeter):30.10 inches Hg (1019.4 mb) [Sea level pressure: 1019.2 mb]
Winds:from the SSE (150 degrees) at 13 MPH (11 knots; 5.7 m/s) gusting to 22 MPH (19 knots; 9.8 m/s)
Visibility:10 or more sm (16+ km)
Ceiling:7000 feet AGL
Clouds: broken clouds at 7000 feet AGL
QC Flag:automated observation with no human augmentation